sensor_id;sensor_type;location;lat;lon;timestamp;P1;durP1;ratioP1;P2;durP2;ratioP2
27632;SDS011;15046;50.930;13.334;2022-11-04T00:01:55;14.45;;;8.20;;
27632;SDS011;15046;50.930;13.334;2022-11-04T00:04:22;16.08;;;7.85;;
27632;SDS011;15046;50.930;13.334;2022-11-04T00:06:50;12.15;;;7.03;;
27632;SDS011;15046;50.930;13.334;2022-11-04T00:09:17;14.18;;;7.90;;
27632;SDS011;15046;50.930;13.334;2022-11-04T00:11:48;15.98;;;9.48;;
27632;SDS011;15046;50.930;13.334;2022-11-04T00:14:32;12.32;;;7.30;;
27632;SDS011;15046;50.930;13.334;2022-11-04T00:16:59;16.88;;;9.88;;
27632;SDS011;15046;50.930;13.334;2022-11-04T00:19:44;13.57;;;8.13;;
27632;SDS011;15046;50.930;13.334;2022-11-04T00:22:29;13.82;;;8.68;;
27632;SDS011;15046;50.930;13.334;2022-11-04T00:25:13;16.92;;;9.07;;
27632;SDS011;15046;50.930;13.334;2022-11-04T00:28:05;13.43;;;7.90;;
27632;SDS011;15046;50.930;13.334;2022-11-04T00:30:57;14.73;;;9.30;;
27632;SDS011;15046;50.930;13.334;2022-11-04T00:33:46;14.63;;;8.43;;
27632;SDS011;15046;50.930;13.334;2022-11-04T00:36:13;15.68;;;9.02;;
27632;SDS011;15046;50.930;13.334;2022-11-04T00:38:39;14.30;;;8.77;;
27632;SDS011;15046;50.930;13.334;2022-11-04T00:41:05;15.88;;;10.02;;
27632;SDS011;15046;50.930;13.334;2022-11-04T00:44:01;14.75;;;9.45;;
27632;SDS011;15046;50.930;13.334;2022-11-04T00:46:29;13.43;;;9.00;;
27632;SDS011;15046;50.930;13.334;2022-11-04T00:48:56;17.20;;;10.90;;
27632;SDS011;15046;50.930;13.334;2022-11-04T00:51:23;18.33;;;10.50;;
27632;SDS011;15046;50.930;13.334;2022-11-04T00:53:49;14.50;;;10.13;;
27632;SDS011;15046;50.930;13.334;2022-11-04T00:56:16;16.30;;;9.32;;
27632;SDS011;15046;50.930;13.334;2022-11-04T00:58:41;16.77;;;9.82;;
27632;SDS011;15046;50.930;13.334;2022-11-04T01:01:08;18.27;;;10.88;;
27632;SDS011;15046;50.930;13.334;2022-11-04T01:03:35;17.77;;;10.85;;
27632;SDS011;15046;50.930;13.334;2022-11-04T01:06:01;17.42;;;11.35;;
27632;SDS011;15046;50.930;13.334;2022-11-04T01:08:27;22.38;;;11.85;;
27632;SDS011;15046;50.930;13.334;2022-11-04T01:10:53;18.98;;;11.98;;
27632;SDS011;15046;50.930;13.334;2022-11-04T01:13:18;19.92;;;10.93;;
27632;SDS011;15046;50.930;13.334;2022-11-04T01:15:44;19.25;;;11.27;;
27632;SDS011;15046;50.930;13.334;2022-11-04T01:18:10;18.95;;;11.82;;
27632;SDS011;15046;50.930;13.334;2022-11-04T01:20:36;21.10;;;12.25;;
27632;SDS011;15046;50.930;13.334;2022-11-04T01:23:02;18.77;;;12.80;;
27632;SDS011;15046;50.930;13.334;2022-11-04T01:25:27;16.67;;;10.77;;
27632;SDS011;15046;50.930;13.334;2022-11-04T01:27:54;21.23;;;12.48;;
27632;SDS011;15046;50.930;13.334;2022-11-04T01:30:20;23.65;;;13.57;;
27632;SDS011;15046;50.930;13.334;2022-11-04T01:32:46;19.65;;;12.18;;
27632;SDS011;15046;50.930;13.334;2022-11-04T01:35:11;19.55;;;12.50;;
27632;SDS011;15046;50.930;13.334;2022-11-04T01:37:37;18.98;;;12.45;;
27632;SDS011;15046;50.930;13.334;2022-11-04T01:40:03;19.95;;;12.55;;
27632;SDS011;15046;50.930;13.334;2022-11-04T01:42:30;19.58;;;12.98;;
27632;SDS011;15046;50.930;13.334;2022-11-04T01:44:56;19.30;;;11.52;;
27632;SDS011;15046;50.930;13.334;2022-11-04T01:50:08;22.88;;;12.90;;
27632;SDS011;15046;50.930;13.334;2022-11-04T01:55:27;17.52;;;11.73;;
27632;SDS011;15046;50.930;13.334;2022-11-04T01:57:58;20.73;;;12.02;;
27632;SDS011;15046;50.930;13.334;2022-11-04T02:00:28;22.40;;;13.57;;
27632;SDS011;15046;50.930;13.334;2022-11-04T02:05:30;24.05;;;14.25;;
27632;SDS011;15046;50.930;13.334;2022-11-04T02:07:57;20.35;;;12.30;;
27632;SDS011;15046;50.930;13.334;2022-11-04T02:10:27;20.80;;;14.38;;
27632;SDS011;15046;50.930;13.334;2022-11-04T02:12:54;19.75;;;12.32;;
27632;SDS011;15046;50.930;13.334;2022-11-04T02:29:32;24.75;;;14.52;;
27632;SDS011;15046;50.930;13.334;2022-11-04T02:40:17;25.30;;;16.17;;
27632;SDS011;15046;50.930;13.334;2022-11-04T02:42:59;24.75;;;15.32;;
27632;SDS011;15046;50.930;13.334;2022-11-04T02:53:14;24.08;;;14.40;;
27632;SDS011;15046;50.930;13.334;2022-11-04T02:55:45;23.42;;;14.20;;
27632;SDS011;15046;50.930;13.334;2022-11-04T02:58:17;22.67;;;12.57;;
27632;SDS011;15046;50.930;13.334;2022-11-04T03:00:47;26.75;;;14.02;;
27632;SDS011;15046;50.930;13.334;2022-11-04T03:03:22;21.90;;;12.88;;
27632;SDS011;15046;50.930;13.334;2022-11-04T03:05:53;23.48;;;14.23;;
27632;SDS011;15046;50.930;13.334;2022-11-04T03:08:22;24.40;;;15.60;;
27632;SDS011;15046;50.930;13.334;2022-11-04T03:10:53;27.00;;;14.00;;
27632;SDS011;15046;50.930;13.334;2022-11-04T03:13:28;27.48;;;15.07;;
27632;SDS011;15046;50.930;13.334;2022-11-04T03:16:02;25.88;;;15.25;;
27632;SDS011;15046;50.930;13.334;2022-11-04T03:18:48;26.20;;;15.82;;
27632;SDS011;15046;50.930;13.334;2022-11-04T03:21:49;26.23;;;14.75;;
27632;SDS011;15046;50.930;13.334;2022-11-04T03:24:23;30.58;;;16.08;;
27632;SDS011;15046;50.930;13.334;2022-11-04T03:26:51;28.63;;;15.95;;
27632;SDS011;15046;50.930;13.334;2022-11-04T03:29:58;25.77;;;15.25;;
27632;SDS011;15046;50.930;13.334;2022-11-04T03:32:42;26.00;;;15.77;;
27632;SDS011;15046;50.930;13.334;2022-11-04T03:35:12;28.73;;;16.33;;
27632;SDS011;15046;50.930;13.334;2022-11-04T03:37:39;28.25;;;16.80;;
27632;SDS011;15046;50.930;13.334;2022-11-04T03:40:06;29.45;;;18.27;;
27632;SDS011;15046;50.930;13.334;2022-11-04T03:42:33;32.05;;;16.60;;
27632;SDS011;15046;50.930;13.334;2022-11-04T03:45:06;29.80;;;17.55;;
27632;SDS011;15046;50.930;13.334;2022-11-04T03:47:32;28.58;;;16.75;;
27632;SDS011;15046;50.930;13.334;2022-11-04T03:50:00;31.05;;;17.42;;
27632;SDS011;15046;50.930;13.334;2022-11-04T03:52:33;35.20;;;18.98;;
27632;SDS011;15046;50.930;13.334;2022-11-04T03:55:00;35.03;;;18.80;;
27632;SDS011;15046;50.930;13.334;2022-11-04T03:57:33;34.42;;;18.00;;
27632;SDS011;15046;50.930;13.334;2022-11-04T04:00:18;36.30;;;19.25;;
27632;SDS011;15046;50.930;13.334;2022-11-04T04:07:55;40.95;;;20.60;;
27632;SDS011;15046;50.930;13.334;2022-11-04T04:13:26;34.47;;;19.30;;
27632;SDS011;15046;50.930;13.334;2022-11-04T04:16:06;37.92;;;21.33;;
27632;SDS011;15046;50.930;13.334;2022-11-04T04:21:14;38.80;;;21.77;;
27632;SDS011;15046;50.930;13.334;2022-11-04T04:23:43;38.80;;;21.25;;
27632;SDS011;15046;50.930;13.334;2022-11-04T04:26:30;46.33;;;25.17;;
27632;SDS011;15046;50.930;13.334;2022-11-04T04:29:18;41.97;;;24.10;;
27632;SDS011;15046;50.930;13.334;2022-11-04T04:31:46;48.75;;;25.52;;
27632;SDS011;15046;50.930;13.334;2022-11-04T04:34:14;42.75;;;24.27;;
27632;SDS011;15046;50.930;13.334;2022-11-04T04:36:47;45.42;;;24.90;;
27632;SDS011;15046;50.930;13.334;2022-11-04T04:39:35;49.28;;;24.48;;
27632;SDS011;15046;50.930;13.334;2022-11-04T04:42:24;47.10;;;24.83;;
27632;SDS011;15046;50.930;13.334;2022-11-04T04:45:18;47.53;;;24.45;;
27632;SDS011;15046;50.930;13.334;2022-11-04T04:47:47;51.50;;;26.15;;
27632;SDS011;15046;50.930;13.334;2022-11-04T04:50:14;49.30;;;23.83;;
27632;SDS011;15046;50.930;13.334;2022-11-04T04:52:42;43.15;;;22.25;;
27632;SDS011;15046;50.930;13.334;2022-11-04T04:55:10;43.53;;;23.27;;
27632;SDS011;15046;50.930;13.334;2022-11-04T04:57:37;44.38;;;23.52;;
27632;SDS011;15046;50.930;13.334;2022-11-04T05:00:04;44.90;;;24.00;;
27632;SDS011;15046;50.930;13.334;2022-11-04T05:02:31;48.55;;;24.10;;
27632;SDS011;15046;50.930;13.334;2022-11-04T05:04:57;42.72;;;22.05;;
27632;SDS011;15046;50.930;13.334;2022-11-04T05:07:23;45.13;;;22.73;;
27632;SDS011;15046;50.930;13.334;2022-11-04T05:09:50;39.05;;;21.58;;
27632;SDS011;15046;50.930;13.334;2022-11-04T05:12:16;46.95;;;22.45;;
27632;SDS011;15046;50.930;13.334;2022-11-04T05:15:17;42.20;;;22.02;;
27632;SDS011;15046;50.930;13.334;2022-11-04T05:20:24;48.33;;;23.17;;
27632;SDS011;15046;50.930;13.334;2022-11-04T05:22:53;43.92;;;22.08;;
27632;SDS011;15046;50.930;13.334;2022-11-04T05:25:19;42.67;;;19.52;;
27632;SDS011;15046;50.930;13.334;2022-11-04T05:27:45;42.90;;;21.52;;
27632;SDS011;15046;50.930;13.334;2022-11-04T05:30:11;40.88;;;21.08;;
27632;SDS011;15046;50.930;13.334;2022-11-04T05:32:42;43.65;;;22.52;;
27632;SDS011;15046;50.930;13.334;2022-11-04T05:35:08;38.67;;;21.00;;
27632;SDS011;15046;50.930;13.334;2022-11-04T05:37:33;37.40;;;19.13;;
27632;SDS011;15046;50.930;13.334;2022-11-04T05:39:59;41.70;;;19.17;;
27632;SDS011;15046;50.930;13.334;2022-11-04T05:42:25;39.05;;;18.55;;
27632;SDS011;15046;50.930;13.334;2022-11-04T05:44:51;37.10;;;17.42;;
27632;SDS011;15046;50.930;13.334;2022-11-04T05:47:17;37.90;;;18.38;;
27632;SDS011;15046;50.930;13.334;2022-11-04T05:49:42;32.75;;;16.77;;
27632;SDS011;15046;50.930;13.334;2022-11-04T05:52:08;34.58;;;18.40;;
27632;SDS011;15046;50.930;13.334;2022-11-04T05:54:35;32.58;;;17.05;;
27632;SDS011;15046;50.930;13.334;2022-11-04T05:57:02;31.55;;;15.55;;
27632;SDS011;15046;50.930;13.334;2022-11-04T05:59:28;32.20;;;15.77;;
27632;SDS011;15046;50.930;13.334;2022-11-04T06:01:54;27.45;;;14.95;;
27632;SDS011;15046;50.930;13.334;2022-11-04T06:04:19;31.65;;;15.63;;
27632;SDS011;15046;50.930;13.334;2022-11-04T06:06:45;29.25;;;14.55;;
27632;SDS011;15046;50.930;13.334;2022-11-04T06:09:11;30.27;;;13.77;;
27632;SDS011;15046;50.930;13.334;2022-11-04T06:11:38;28.10;;;14.05;;
27632;SDS011;15046;50.930;13.334;2022-11-04T06:14:04;29.55;;;15.05;;
27632;SDS011;15046;50.930;13.334;2022-11-04T06:16:30;27.00;;;13.45;;
27632;SDS011;15046;50.930;13.334;2022-11-04T06:18:56;28.95;;;14.02;;
27632;SDS011;15046;50.930;13.334;2022-11-04T06:21:23;27.42;;;14.20;;
27632;SDS011;15046;50.930;13.334;2022-11-04T06:23:52;25.38;;;13.40;;
27632;SDS011;15046;50.930;13.334;2022-11-04T06:26:20;24.02;;;13.02;;
27632;SDS011;15046;50.930;13.334;2022-11-04T06:28:47;21.95;;;11.82;;
27632;SDS011;15046;50.930;13.334;2022-11-04T06:31:13;23.15;;;11.63;;
27632;SDS011;15046;50.930;13.334;2022-11-04T06:33:40;22.08;;;12.70;;
27632;SDS011;15046;50.930;13.334;2022-11-04T06:36:06;27.65;;;12.07;;
27632;SDS011;15046;50.930;13.334;2022-11-04T06:38:35;25.77;;;12.98;;
27632;SDS011;15046;50.930;13.334;2022-11-04T06:41:02;21.80;;;11.45;;
27632;SDS011;15046;50.930;13.334;2022-11-04T06:43:29;22.80;;;11.13;;
27632;SDS011;15046;50.930;13.334;2022-11-04T06:45:56;24.02;;;12.40;;
27632;SDS011;15046;50.930;13.334;2022-11-04T06:48:23;23.23;;;12.00;;
27632;SDS011;15046;50.930;13.334;2022-11-04T06:50:49;21.92;;;11.63;;
27632;SDS011;15046;50.930;13.334;2022-11-04T06:53:15;23.35;;;11.73;;
27632;SDS011;15046;50.930;13.334;2022-11-04T06:55:41;24.42;;;12.48;;
27632;SDS011;15046;50.930;13.334;2022-11-04T06:58:07;24.45;;;11.70;;
27632;SDS011;15046;50.930;13.334;2022-11-04T07:00:33;23.67;;;11.95;;
27632;SDS011;15046;50.930;13.334;2022-11-04T07:02:59;20.38;;;11.57;;
27632;SDS011;15046;50.930;13.334;2022-11-04T07:05:25;27.48;;;12.13;;
27632;SDS011;15046;50.930;13.334;2022-11-04T07:07:51;20.90;;;11.48;;
27632;SDS011;15046;50.930;13.334;2022-11-04T07:10:17;24.15;;;12.07;;
27632;SDS011;15046;50.930;13.334;2022-11-04T07:12:42;23.23;;;9.77;;
27632;SDS011;15046;50.930;13.334;2022-11-04T07:15:08;23.73;;;11.52;;
27632;SDS011;15046;50.930;13.334;2022-11-04T07:17:34;24.00;;;11.98;;
27632;SDS011;15046;50.930;13.334;2022-11-04T07:20:00;22.77;;;12.02;;
27632;SDS011;15046;50.930;13.334;2022-11-04T07:22:27;27.17;;;13.40;;
27632;SDS011;15046;50.930;13.334;2022-11-04T07:24:52;24.10;;;11.95;;
27632;SDS011;15046;50.930;13.334;2022-11-04T07:27:18;19.90;;;9.90;;
27632;SDS011;15046;50.930;13.334;2022-11-04T07:29:44;20.95;;;11.10;;
27632;SDS011;15046;50.930;13.334;2022-11-04T07:32:10;20.67;;;10.93;;
27632;SDS011;15046;50.930;13.334;2022-11-04T07:34:36;19.75;;;9.25;;
27632;SDS011;15046;50.930;13.334;2022-11-04T07:37:02;20.33;;;10.43;;
27632;SDS011;15046;50.930;13.334;2022-11-04T07:39:27;21.02;;;10.32;;
27632;SDS011;15046;50.930;13.334;2022-11-04T07:41:53;18.67;;;10.15;;
27632;SDS011;15046;50.930;13.334;2022-11-04T07:44:21;21.45;;;10.77;;
27632;SDS011;15046;50.930;13.334;2022-11-04T07:46:47;22.35;;;10.77;;
27632;SDS011;15046;50.930;13.334;2022-11-04T07:49:14;21.58;;;12.63;;
27632;SDS011;15046;50.930;13.334;2022-11-04T07:51:40;19.77;;;10.35;;
27632;SDS011;15046;50.930;13.334;2022-11-04T07:54:05;20.85;;;10.45;;
27632;SDS011;15046;50.930;13.334;2022-11-04T07:56:31;19.52;;;10.13;;
27632;SDS011;15046;50.930;13.334;2022-11-04T07:58:57;22.67;;;9.73;;
27632;SDS011;15046;50.930;13.334;2022-11-04T08:01:23;19.52;;;10.48;;
27632;SDS011;15046;50.930;13.334;2022-11-04T08:03:49;18.10;;;9.70;;
27632;SDS011;15046;50.930;13.334;2022-11-04T08:06:16;18.35;;;9.73;;
27632;SDS011;15046;50.930;13.334;2022-11-04T08:08:44;22.17;;;10.55;;
27632;SDS011;15046;50.930;13.334;2022-11-04T08:11:14;18.02;;;9.05;;
27632;SDS011;15046;50.930;13.334;2022-11-04T08:13:45;18.00;;;9.93;;
27632;SDS011;15046;50.930;13.334;2022-11-04T08:16:12;15.95;;;9.75;;
27632;SDS011;15046;50.930;13.334;2022-11-04T08:18:41;18.67;;;9.43;;
27632;SDS011;15046;50.930;13.334;2022-11-04T08:21:07;18.70;;;10.25;;
27632;SDS011;15046;50.930;13.334;2022-11-04T08:23:34;23.10;;;10.77;;
27632;SDS011;15046;50.930;13.334;2022-11-04T08:26:00;21.10;;;11.60;;
27632;SDS011;15046;50.930;13.334;2022-11-04T08:28:26;17.48;;;9.10;;
27632;SDS011;15046;50.930;13.334;2022-11-04T08:31:08;18.52;;;9.77;;
27632;SDS011;15046;50.930;13.334;2022-11-04T08:33:54;16.90;;;8.90;;
27632;SDS011;15046;50.930;13.334;2022-11-04T08:36:22;17.77;;;9.63;;
27632;SDS011;15046;50.930;13.334;2022-11-04T08:38:50;17.25;;;9.60;;
27632;SDS011;15046;50.930;13.334;2022-11-04T08:41:19;16.30;;;9.10;;
27632;SDS011;15046;50.930;13.334;2022-11-04T08:43:49;18.50;;;10.05;;
27632;SDS011;15046;50.930;13.334;2022-11-04T08:46:15;20.45;;;10.35;;
27632;SDS011;15046;50.930;13.334;2022-11-04T08:48:42;19.95;;;9.75;;
27632;SDS011;15046;50.930;13.334;2022-11-04T08:51:13;17.40;;;9.57;;
27632;SDS011;15046;50.930;13.334;2022-11-04T08:53:41;19.70;;;9.75;;
27632;SDS011;15046;50.930;13.334;2022-11-04T08:56:08;15.75;;;8.48;;
27632;SDS011;15046;50.930;13.334;2022-11-04T08:58:35;18.65;;;10.82;;
27632;SDS011;15046;50.930;13.334;2022-11-04T09:01:04;14.90;;;9.02;;
27632;SDS011;15046;50.930;13.334;2022-11-04T09:03:31;17.75;;;8.50;;
27632;SDS011;15046;50.930;13.334;2022-11-04T09:05:58;16.92;;;8.90;;
27632;SDS011;15046;50.930;13.334;2022-11-04T09:08:25;19.98;;;9.93;;
27632;SDS011;15046;50.930;13.334;2022-11-04T09:10:54;14.85;;;9.43;;
27632;SDS011;15046;50.930;13.334;2022-11-04T09:13:20;16.33;;;9.10;;
27632;SDS011;15046;50.930;13.334;2022-11-04T09:15:46;14.93;;;7.93;;
27632;SDS011;15046;50.930;13.334;2022-11-04T09:18:13;14.95;;;7.95;;
27632;SDS011;15046;50.930;13.334;2022-11-04T09:20:39;14.80;;;8.20;;
27632;SDS011;15046;50.930;13.334;2022-11-04T09:23:08;15.48;;;8.98;;
27632;SDS011;15046;50.930;13.334;2022-11-04T09:25:35;14.85;;;8.48;;
27632;SDS011;15046;50.930;13.334;2022-11-04T09:28:01;12.27;;;8.13;;
27632;SDS011;15046;50.930;13.334;2022-11-04T09:30:27;13.48;;;7.90;;
27632;SDS011;15046;50.930;13.334;2022-11-04T09:32:52;12.27;;;7.28;;
27632;SDS011;15046;50.930;13.334;2022-11-04T09:35:18;14.02;;;7.22;;
27632;SDS011;15046;50.930;13.334;2022-11-04T09:37:44;10.85;;;6.88;;
27632;SDS011;15046;50.930;13.334;2022-11-04T09:40:14;12.95;;;6.70;;
27632;SDS011;15046;50.930;13.334;2022-11-04T09:45:27;13.23;;;6.65;;
27632;SDS011;15046;50.930;13.334;2022-11-04T09:47:56;10.40;;;5.70;;
27632;SDS011;15046;50.930;13.334;2022-11-04T09:50:27;9.50;;;5.90;;
27632;SDS011;15046;50.930;13.334;2022-11-04T09:53:04;13.00;;;6.93;;
27632;SDS011;15046;50.930;13.334;2022-11-04T09:55:40;13.13;;;6.45;;
27632;SDS011;15046;50.930;13.334;2022-11-04T09:58:15;10.45;;;5.75;;
27632;SDS011;15046;50.930;13.334;2022-11-04T10:00:42;10.00;;;5.63;;
27632;SDS011;15046;50.930;13.334;2022-11-04T10:11:31;9.00;;;5.18;;
27632;SDS011;15046;50.930;13.334;2022-11-04T10:20:12;10.27;;;5.35;;
27632;SDS011;15046;50.930;13.334;2022-11-04T10:22:11;13.05;;;5.55;;
27632;SDS011;15046;50.930;13.334;2022-11-04T10:24:48;12.05;;;5.90;;
27632;SDS011;15046;50.930;13.334;2022-11-04T10:27:26;9.40;;;4.97;;
27632;SDS011;15046;50.930;13.334;2022-11-04T10:29:57;8.15;;;4.53;;
27632;SDS011;15046;50.930;13.334;2022-11-04T10:35:28;11.23;;;5.45;;
27632;SDS011;15046;50.930;13.334;2022-11-04T10:38:23;9.70;;;5.60;;
27632;SDS011;15046;50.930;13.334;2022-11-04T10:40:56;8.55;;;5.18;;
27632;SDS011;15046;50.930;13.334;2022-11-04T10:48:35;9.30;;;5.22;;
27632;SDS011;15046;50.930;13.334;2022-11-04T10:51:09;11.65;;;5.55;;
27632;SDS011;15046;50.930;13.334;2022-11-04T10:53:35;10.50;;;5.53;;
27632;SDS011;15046;50.930;13.334;2022-11-04T10:58:31;13.05;;;5.88;;
27632;SDS011;15046;50.930;13.334;2022-11-04T11:03:53;7.75;;;4.93;;
27632;SDS011;15046;50.930;13.334;2022-11-04T11:08:53;9.45;;;4.90;;
27632;SDS011;15046;50.930;13.334;2022-11-04T11:11:34;9.68;;;5.30;;
27632;SDS011;15046;50.930;13.334;2022-11-04T11:14:02;8.88;;;5.22;;
27632;SDS011;15046;50.930;13.334;2022-11-04T11:16:28;11.05;;;6.03;;
27632;SDS011;15046;50.930;13.334;2022-11-04T11:21:48;9.82;;;5.03;;
27632;SDS011;15046;50.930;13.334;2022-11-04T11:26:45;10.57;;;4.72;;
27632;SDS011;15046;50.930;13.334;2022-11-04T11:29:21;6.38;;;3.95;;
27632;SDS011;15046;50.930;13.334;2022-11-04T11:31:49;7.68;;;4.32;;
27632;SDS011;15046;50.930;13.334;2022-11-04T11:34:20;8.77;;;4.43;;
27632;SDS011;15046;50.930;13.334;2022-11-04T11:36:56;10.00;;;5.13;;
27632;SDS011;15046;50.930;13.334;2022-11-04T11:39:32;7.70;;;4.55;;
27632;SDS011;15046;50.930;13.334;2022-11-04T11:42:06;7.93;;;4.85;;
27632;SDS011;15046;50.930;13.334;2022-11-04T11:44:40;9.70;;;5.53;;
27632;SDS011;15046;50.930;13.334;2022-11-04T11:52:32;7.85;;;4.78;;
27632;SDS011;15046;50.930;13.334;2022-11-04T12:00:31;9.32;;;4.65;;
27632;SDS011;15046;50.930;13.334;2022-11-04T12:22:51;8.80;;;4.30;;
27632;SDS011;15046;50.930;13.334;2022-11-04T12:30:29;7.97;;;4.75;;
27632;SDS011;15046;50.930;13.334;2022-11-04T12:33:09;8.35;;;3.90;;
27632;SDS011;15046;50.930;13.334;2022-11-04T12:35:58;6.97;;;3.83;;
27632;SDS011;15046;50.930;13.334;2022-11-04T12:41:17;7.05;;;4.35;;
27632;SDS011;15046;50.930;13.334;2022-11-04T12:46:42;6.85;;;3.72;;
27632;SDS011;15046;50.930;13.334;2022-11-04T12:55:02;7.15;;;4.00;;
27632;SDS011;15046;50.930;13.334;2022-11-04T13:03:43;5.90;;;3.35;;
27632;SDS011;15046;50.930;13.334;2022-11-04T13:06:36;5.63;;;3.10;;
27632;SDS011;15046;50.930;13.334;2022-11-04T13:09:14;6.50;;;3.50;;
27632;SDS011;15046;50.930;13.334;2022-11-04T13:12:12;7.28;;;3.30;;
27632;SDS011;15046;50.930;13.334;2022-11-04T13:17:28;7.65;;;3.45;;
27632;SDS011;15046;50.930;13.334;2022-11-04T13:20:04;7.78;;;3.42;;
27632;SDS011;15046;50.930;13.334;2022-11-04T13:22:32;5.38;;;3.38;;
27632;SDS011;15046;50.930;13.334;2022-11-04T13:25:03;6.88;;;3.33;;
27632;SDS011;15046;50.930;13.334;2022-11-04T13:27:37;7.00;;;3.60;;
27632;SDS011;15046;50.930;13.334;2022-11-04T13:30:18;5.95;;;3.28;;
27632;SDS011;15046;50.930;13.334;2022-11-04T13:33:36;5.00;;;3.00;;
27632;SDS011;15046;50.930;13.334;2022-11-04T13:35:45;5.22;;;3.00;;
27632;SDS011;15046;50.930;13.334;2022-11-04T13:38:31;5.05;;;2.90;;
27632;SDS011;15046;50.930;13.334;2022-11-04T13:44:11;6.28;;;3.63;;
27632;SDS011;15046;50.930;13.334;2022-11-04T13:46:46;6.47;;;3.80;;
27632;SDS011;15046;50.930;13.334;2022-11-04T13:49:26;9.10;;;3.92;;
27632;SDS011;15046;50.930;13.334;2022-11-04T13:52:04;8.20;;;3.70;;
27632;SDS011;15046;50.930;13.334;2022-11-04T13:54:51;6.93;;;4.03;;
27632;SDS011;15046;50.930;13.334;2022-11-04T13:57:20;5.93;;;3.38;;
27632;SDS011;15046;50.930;13.334;2022-11-04T14:02:48;6.78;;;3.80;;
27632;SDS011;15046;50.930;13.334;2022-11-04T14:18:56;7.75;;;4.18;;
27632;SDS011;15046;50.930;13.334;2022-11-04T14:22:03;10.32;;;4.38;;
27632;SDS011;15046;50.930;13.334;2022-11-04T14:24:29;10.32;;;4.47;;
27632;SDS011;15046;50.930;13.334;2022-11-04T14:26:56;6.40;;;4.13;;
27632;SDS011;15046;50.930;13.334;2022-11-04T14:29:23;9.68;;;4.35;;
27632;SDS011;15046;50.930;13.334;2022-11-04T14:31:51;6.40;;;3.83;;
27632;SDS011;15046;50.930;13.334;2022-11-04T14:34:33;8.80;;;4.38;;
27632;SDS011;15046;50.930;13.334;2022-11-04T14:39:45;9.23;;;5.03;;
27632;SDS011;15046;50.930;13.334;2022-11-04T14:45:23;7.57;;;4.53;;
27632;SDS011;15046;50.930;13.334;2022-11-04T14:47:52;8.30;;;4.13;;
27632;SDS011;15046;50.930;13.334;2022-11-04T14:50:24;7.35;;;4.18;;
27632;SDS011;15046;50.930;13.334;2022-11-04T14:52:58;8.90;;;5.15;;
27632;SDS011;15046;50.930;13.334;2022-11-04T14:55:29;6.35;;;3.72;;
27632;SDS011;15046;50.930;13.334;2022-11-04T14:57:58;7.65;;;4.38;;
27632;SDS011;15046;50.930;13.334;2022-11-04T15:03:22;6.80;;;3.88;;
27632;SDS011;15046;50.930;13.334;2022-11-04T15:10:57;11.13;;;4.97;;
27632;SDS011;15046;50.930;13.334;2022-11-04T15:13:38;8.30;;;4.75;;
27632;SDS011;15046;50.930;13.334;2022-11-04T15:16:09;9.18;;;4.47;;
27632;SDS011;15046;50.930;13.334;2022-11-04T15:18:39;6.82;;;3.75;;
27632;SDS011;15046;50.930;13.334;2022-11-04T15:21:05;7.18;;;4.18;;
27632;SDS011;15046;50.930;13.334;2022-11-04T15:23:38;7.32;;;3.88;;
27632;SDS011;15046;50.930;13.334;2022-11-04T15:26:13;6.78;;;4.05;;
27632;SDS011;15046;50.930;13.334;2022-11-04T15:28:48;8.10;;;4.30;;
27632;SDS011;15046;50.930;13.334;2022-11-04T15:31:17;10.00;;;4.60;;
27632;SDS011;15046;50.930;13.334;2022-11-04T15:33:47;8.38;;;4.25;;
27632;SDS011;15046;50.930;13.334;2022-11-04T15:36:20;7.22;;;4.65;;
27632;SDS011;15046;50.930;13.334;2022-11-04T15:38:52;8.15;;;4.22;;
27632;SDS011;15046;50.930;13.334;2022-11-04T15:41:43;8.60;;;4.22;;
27632;SDS011;15046;50.930;13.334;2022-11-04T15:44:30;7.13;;;4.43;;
27632;SDS011;15046;50.930;13.334;2022-11-04T15:46:59;10.68;;;4.43;;
27632;SDS011;15046;50.930;13.334;2022-11-04T15:49:27;8.00;;;4.45;;
27632;SDS011;15046;50.930;13.334;2022-11-04T15:51:58;9.50;;;4.80;;
27632;SDS011;15046;50.930;13.334;2022-11-04T15:54:44;8.73;;;4.43;;
27632;SDS011;15046;50.930;13.334;2022-11-04T15:57:16;9.52;;;4.72;;
27632;SDS011;15046;50.930;13.334;2022-11-04T15:59:54;12.00;;;5.32;;
27632;SDS011;15046;50.930;13.334;2022-11-04T16:02:49;7.88;;;4.65;;
27632;SDS011;15046;50.930;13.334;2022-11-04T16:11:06;7.43;;;4.28;;
27632;SDS011;15046;50.930;13.334;2022-11-04T16:13:34;10.77;;;4.55;;
27632;SDS011;15046;50.930;13.334;2022-11-04T16:21:07;9.52;;;4.70;;
27632;SDS011;15046;50.930;13.334;2022-11-04T16:23:50;11.02;;;5.40;;
27632;SDS011;15046;50.930;13.334;2022-11-04T16:26:24;10.63;;;5.25;;
27632;SDS011;15046;50.930;13.334;2022-11-04T16:28:53;10.45;;;5.00;;
27632;SDS011;15046;50.930;13.334;2022-11-04T16:31:23;9.15;;;5.55;;
27632;SDS011;15046;50.930;13.334;2022-11-04T16:33:51;8.50;;;4.90;;
27632;SDS011;15046;50.930;13.334;2022-11-04T16:36:17;14.30;;;6.38;;
27632;SDS011;15046;50.930;13.334;2022-11-04T16:39:00;9.18;;;5.43;;
27632;SDS011;15046;50.930;13.334;2022-11-04T16:41:29;10.77;;;5.65;;
27632;SDS011;15046;50.930;13.334;2022-11-04T16:43:59;9.10;;;4.75;;
27632;SDS011;15046;50.930;13.334;2022-11-04T16:46:24;11.25;;;5.35;;
27632;SDS011;15046;50.930;13.334;2022-11-04T16:48:51;7.82;;;4.72;;
27632;SDS011;15046;50.930;13.334;2022-11-04T16:51:18;8.70;;;4.43;;
27632;SDS011;15046;50.930;13.334;2022-11-04T16:53:49;8.23;;;4.53;;
27632;SDS011;15046;50.930;13.334;2022-11-04T16:56:16;8.35;;;5.18;;
27632;SDS011;15046;50.930;13.334;2022-11-04T16:58:44;12.50;;;5.05;;
27632;SDS011;15046;50.930;13.334;2022-11-04T17:01:10;10.43;;;5.35;;
27632;SDS011;15046;50.930;13.334;2022-11-04T17:03:40;9.43;;;5.95;;
27632;SDS011;15046;50.930;13.334;2022-11-04T17:06:09;9.10;;;5.20;;
27632;SDS011;15046;50.930;13.334;2022-11-04T17:08:37;11.00;;;6.03;;
27632;SDS011;15046;50.930;13.334;2022-11-04T17:11:03;10.10;;;5.90;;
27632;SDS011;15046;50.930;13.334;2022-11-04T17:13:29;9.23;;;5.72;;
27632;SDS011;15046;50.930;13.334;2022-11-04T17:15:56;10.82;;;6.15;;
27632;SDS011;15046;50.930;13.334;2022-11-04T17:18:22;12.85;;;6.22;;
27632;SDS011;15046;50.930;13.334;2022-11-04T17:20:49;10.00;;;6.05;;
27632;SDS011;15046;50.930;13.334;2022-11-04T17:23:16;11.43;;;6.63;;
27632;SDS011;15046;50.930;13.334;2022-11-04T17:25:42;11.07;;;6.55;;
27632;SDS011;15046;50.930;13.334;2022-11-04T17:28:09;12.82;;;6.93;;
27632;SDS011;15046;50.930;13.334;2022-11-04T17:30:35;11.40;;;6.35;;
27632;SDS011;15046;50.930;13.334;2022-11-04T17:33:01;12.75;;;6.53;;
27632;SDS011;15046;50.930;13.334;2022-11-04T17:35:31;12.63;;;7.13;;
27632;SDS011;15046;50.930;13.334;2022-11-04T17:37:59;12.00;;;7.05;;
27632;SDS011;15046;50.930;13.334;2022-11-04T17:40:25;11.13;;;6.90;;
27632;SDS011;15046;50.930;13.334;2022-11-04T17:42:51;11.20;;;6.30;;
27632;SDS011;15046;50.930;13.334;2022-11-04T17:45:35;11.27;;;6.80;;
27632;SDS011;15046;50.930;13.334;2022-11-04T17:48:02;10.95;;;6.55;;
27632;SDS011;15046;50.930;13.334;2022-11-04T17:50:28;12.05;;;7.05;;